Time;durP1;ratioP1;P1;durP2;ratioP2;P2;SDS_P1;SDS_P2;PMS_P1;PMS_P2;Temp;Humidity;BMP_temperature;BMP_pressure;BME280_temperature;BME280_humidity;BME280_pressure;Samples;Min_cycle;Max_cycle;Signal;HPM_P1;HPM_P2
2022/02/24 00:00:37;;;;;;;9.90;1.65;;;22.50;99.90;;;;;;5036056;28;20029;-65
2022/02/24 00:03:04;;;;;;;12.15;2.08;;;22.50;99.90;;;;;;5035303;28;20103;-65
2022/02/24 00:05:32;;;;;;;14.18;2.05;;;22.70;99.90;;;;;;5029534;28;20486;-66
2022/02/24 00:07:59;;;;;;;9.32;1.75;;;22.70;99.90;;;;;;5007177;28;20025;-66
2022/02/24 00:10:26;;;;;;;12.00;2.00;;;22.70;99.90;;;;;;5021922;28;20053;-66
2022/02/24 00:12:54;;;;;;;12.82;2.90;;;22.70;99.90;;;;;;5031011;28;20033;-66
2022/02/24 00:15:21;;;;;;;12.70;1.77;;;22.60;99.90;;;;;;5029587;28;20060;-65
2022/02/24 00:17:48;;;;;;;12.07;3.53;;;22.50;99.90;;;;;;5025002;28;20026;-65
2022/02/24 00:20:15;;;;;;;15.75;1.77;;;22.60;99.90;;;;;;5030783;28;20094;-66
2022/02/24 00:22:43;;;;;;;13.73;2.90;;;22.60;99.90;;;;;;5035134;28;20394;-66
2022/02/24 00:25:11;;;;;;;15.23;2.58;;;22.70;99.90;;;;;;5030522;28;20469;-66
2022/02/24 00:27:39;;;;;;;25.52;3.22;;;22.70;99.90;;;;;;5035608;28;20028;-65
2022/02/24 00:30:07;;;;;;;13.60;2.75;;;22.90;99.90;;;;;;5034254;28;20033;-65
2022/02/24 00:32:34;;;;;;;15.85;2.63;;;23.00;99.90;;;;;;5030446;28;20041;-65
2022/02/24 00:35:02;;;;;;;15.40;2.15;;;22.90;99.90;;;;;;5029770;28;20489;-65
2022/02/24 00:37:29;;;;;;;10.40;1.75;;;22.70;99.90;;;;;;5037572;28;20026;-65
2022/02/24 00:39:56;;;;;;;12.07;2.10;;;22.90;99.90;;;;;;5030860;28;20038;-65
2022/02/24 00:42:24;;;;;;;8.57;1.98;;;23.00;99.90;;;;;;5029546;28;20048;-65
2022/02/24 00:44:51;;;;;;;8.00;1.17;;;22.90;99.90;;;;;;5022847;28;20808;-65
2022/02/24 00:47:19;;;;;;;12.82;1.85;;;23.00;99.90;;;;;;5030676;28;21035;-65
2022/02/24 00:49:46;;;;;;;9.13;1.42;;;23.10;99.90;;;;;;5036797;28;20021;-66
2022/02/24 00:52:13;;;;;;;13.30;2.03;;;23.20;99.90;;;;;;5022342;28;20021;-66
2022/02/24 00:54:40;;;;;;;6.82;1.25;;;23.20;99.90;;;;;;5014685;28;20029;-65
2022/02/24 00:57:08;;;;;;;9.20;1.48;;;23.20;99.90;;;;;;5035233;28;20033;-66
2022/02/24 00:59:35;;;;;;;14.38;2.15;;;23.20;99.90;;;;;;5032212;28;20021;-66
2022/02/24 01:02:02;;;;;;;11.40;1.98;;;23.30;99.90;;;;;;5027948;28;20031;-66
2022/02/24 01:04:30;;;;;;;11.50;2.55;;;23.30;99.90;;;;;;5030634;28;20072;-66
2022/02/24 01:06:57;;;;;;;7.65;1.60;;;23.40;99.90;;;;;;5028189;28;20425;-65
2022/02/24 01:09:24;;;;;;;9.63;1.75;;;23.50;99.90;;;;;;5017389;28;20030;-66
2022/02/24 01:11:51;;;;;;;11.25;2.63;;;23.60;99.90;;;;;;5022707;28;20025;-67
2022/02/24 01:14:19;;;;;;;6.97;1.60;;;23.80;99.90;;;;;;5033942;28;20492;-66
2022/02/24 01:16:46;;;;;;;12.23;2.67;;;23.80;99.90;;;;;;5034739;28;20485;-66
2022/02/24 01:19:13;;;;;;;12.90;2.83;;;23.80;99.90;;;;;;5034404;28;20040;-67
2022/02/24 01:21:41;;;;;;;12.18;2.38;;;23.90;99.90;;;;;;5034123;28;20432;-67
2022/02/24 01:24:08;;;;;;;13.68;1.83;;;23.90;99.90;;;;;;5022838;28;20033;-67
2022/02/24 01:26:36;;;;;;;11.07;1.45;;;23.90;99.90;;;;;;5034528;28;20021;-67
2022/02/24 01:29:03;;;;;;;7.88;1.52;;;23.90;99.90;;;;;;5034357;28;20029;-67
2022/02/24 01:31:30;;;;;;;10.32;1.63;;;23.90;99.90;;;;;;5022963;28;20029;-67
2022/02/24 01:33:58;;;;;;;13.50;1.65;;;23.90;99.90;;;;;;5026149;28;20033;-67
2022/02/24 01:36:25;;;;;;;6.20;1.48;;;24.00;99.90;;;;;;5034954;28;20033;-67
2022/02/24 01:38:52;;;;;;;8.57;2.03;;;24.10;99.90;;;;;;5033511;28;20513;-67
2022/02/24 01:41:20;;;;;;;5.30;1.63;;;24.20;99.90;;;;;;5047607;22;20049;-67
2022/02/24 01:43:47;;;;;;;8.98;1.80;;;24.30;99.90;;;;;;5052844;28;20409;-67
2022/02/24 01:46:16;;;;;;;9.70;2.28;;;24.40;99.90;;;;;;5053959;28;20040;-67
2022/02/24 01:48:44;;;;;;;11.82;2.63;;;24.50;99.90;;;;;;5047498;28;20026;-67
2022/02/24 01:51:11;;;;;;;11.80;3.08;;;24.70;99.90;;;;;;5051417;28;20503;-68
2022/02/24 01:53:39;;;;;;;9.50;2.25;;;24.90;99.90;;;;;;5054982;28;20440;-67
2022/02/24 01:56:06;;;;;;;14.68;2.25;;;25.00;99.90;;;;;;5051286;28;20029;-67
2022/02/24 01:58:34;;;;;;;14.95;2.67;;;25.10;99.90;;;;;;5044318;28;20094;-67
2022/02/24 02:01:01;;;;;;;11.05;2.40;;;25.30;99.90;;;;;;5049719;28;20034;-67
2022/02/24 02:03:29;;;;;;;8.73;1.63;;;25.40;99.90;;;;;;5051664;28;20017;-67
2022/02/24 02:05:56;;;;;;;12.05;2.63;;;25.20;99.90;;;;;;5047426;28;20033;-67
2022/02/24 02:08:24;;;;;;;10.20;1.70;;;25.20;99.90;;;;;;5040221;28;20043;-67
2022/02/24 02:10:51;;;;;;;11.98;1.90;;;25.40;99.90;;;;;;5044338;28;20430;-67
2022/02/24 02:13:18;;;;;;;8.32;1.70;;;25.50;99.90;;;;;;5049737;28;20031;-66
2022/02/24 02:15:46;;;;;;;14.50;2.10;;;25.60;99.90;;;;;;5052909;28;20025;-66
2022/02/24 02:18:13;;;;;;;11.63;2.03;;;25.60;99.90;;;;;;5045390;28;20485;-67
2022/02/24 02:20:41;;;;;;;13.80;1.88;;;25.60;99.90;;;;;;5051798;28;20052;-67
2022/02/24 02:23:08;;;;;;;9.88;1.90;;;25.60;99.90;;;;;;5034900;28;20037;-67
2022/02/24 02:25:35;;;;;;;11.45;2.38;;;25.60;99.90;;;;;;5048631;28;20021;-67
2022/02/24 02:28:03;;;;;;;11.88;1.80;;;25.60;99.90;;;;;;5035137;28;20032;-67
2022/02/24 02:30:31;;;;;;;12.13;1.75;;;25.70;99.90;;;;;;5030427;28;20039;-66
2022/02/24 02:32:59;;;;;;;9.60;2.30;;;25.70;99.90;;;;;;5047018;28;20044;-67
2022/02/24 02:35:27;;;;;;;11.00;1.92;;;25.70;99.90;;;;;;5053066;28;20496;-66
2022/02/24 02:37:54;;;;;;;12.23;2.38;;;25.90;99.90;;;;;;5049832;28;20025;-67
2022/02/24 02:40:22;;;;;;;10.35;2.30;;;26.20;99.90;;;;;;5047325;28;20029;-67
2022/02/24 02:42:50;;;;;;;19.73;2.28;;;26.50;99.90;;;;;;5016405;28;20551;-67
2022/02/24 02:45:17;;;;;;;12.82;2.13;;;26.70;99.90;;;;;;5027244;28;20109;-67
2022/02/24 02:47:45;;;;;;;15.07;2.17;;;26.70;99.90;;;;;;5033363;28;20413;-66
2022/02/24 02:50:13;;;;;;;10.48;1.98;;;26.60;99.90;;;;;;5027743;28;20033;-66
2022/02/24 02:52:41;;;;;;;15.48;2.08;;;26.90;99.90;;;;;;5033517;28;20033;-66
2022/02/24 02:55:10;;;;;;;11.82;2.28;;;27.00;99.90;;;;;;5033714;28;20030;-67
2022/02/24 02:57:39;;;;;;;10.43;1.67;;;27.10;99.90;;;;;;5032439;28;20086;-67
2022/02/24 03:00:09;;;;;;;10.13;2.15;;;27.10;99.90;;;;;;5031806;28;20022;-68
2022/02/24 03:02:36;;;;;;;7.00;1.50;;;27.20;99.90;;;;;;5031345;28;20160;-67
2022/02/24 03:05:04;;;;;;;12.93;2.75;;;27.20;99.90;;;;;;5031496;28;20041;-66
2022/02/24 03:07:31;;;;;;;11.23;1.98;;;27.20;99.90;;;;;;5028937;28;20453;-66
2022/02/24 03:09:59;;;;;;;13.20;2.22;;;27.20;99.90;;;;;;5031599;28;20021;-66
2022/02/24 03:12:26;;;;;;;13.93;2.05;;;27.00;99.90;;;;;;5031838;28;20410;-67
2022/02/24 03:14:53;;;;;;;13.52;2.78;;;26.90;99.90;;;;;;5031140;28;20022;-67
2022/02/24 03:17:22;;;;;;;10.82;2.38;;;26.80;99.90;;;;;;5030079;28;20025;-66
2022/02/24 03:19:49;;;;;;;14.88;2.20;;;26.70;99.90;;;;;;5036053;28;20028;-66
2022/02/24 03:22:16;;;;;;;8.73;2.05;;;26.40;99.90;;;;;;5013971;28;20030;-66
2022/02/24 03:24:43;;;;;;;10.00;2.05;;;26.50;99.90;;;;;;5009312;28;20026;-66
2022/02/24 03:27:11;;;;;;;13.48;3.28;;;26.70;99.90;;;;;;5015004;28;20042;-66
2022/02/24 03:29:38;;;;;;;11.43;2.22;;;26.40;99.90;;;;;;5022954;28;20456;-66
2022/02/24 03:32:06;;;;;;;15.05;2.20;;;26.50;99.90;;;;;;5022522;28;20034;-66
2022/02/24 03:34:33;;;;;;;13.02;2.28;;;26.40;99.90;;;;;;5031010;28;20420;-66
2022/02/24 03:37:00;;;;;;;10.90;2.33;;;26.30;99.90;;;;;;5032137;28;20029;-66
2022/02/24 03:39:28;;;;;;;10.60;1.20;;;26.20;99.90;;;;;;5014459;28;20040;-65
2022/02/24 03:41:55;;;;;;;9.32;2.03;;;26.10;99.90;;;;;;5032439;28;20490;-65
2022/02/24 03:44:22;;;;;;;8.48;1.35;;;25.90;99.90;;;;;;5013776;28;20378;-66
2022/02/24 03:46:50;;;;;;;10.63;1.60;;;25.70;99.90;;;;;;5032453;28;20031;-66
2022/02/24 03:49:18;;;;;;;3.92;0.95;;;25.70;99.90;;;;;;5031042;28;20037;-66
2022/02/24 03:51:46;;;;;;;6.55;1.15;;;25.70;99.90;;;;;;4996756;28;20125;-67
2022/02/24 03:54:13;;;;;;;6.22;1.00;;;25.70;99.90;;;;;;5022532;28;20037;-66
2022/02/24 03:56:40;;;;;;;7.53;1.10;;;25.80;99.90;;;;;;5014541;28;20551;-67
2022/02/24 03:59:07;;;;;;;8.38;0.90;;;25.90;99.90;;;;;;5021635;28;20026;-66
2022/02/24 04:01:35;;;;;;;6.13;0.73;;;25.90;99.90;;;;;;5028781;28;20033;-66
2022/02/24 04:04:02;;;;;;;3.85;0.70;;;25.90;99.90;;;;;;5031386;28;20030;-66
2022/02/24 04:06:29;;;;;;;5.25;0.77;;;25.90;99.90;;;;;;5032602;28;20029;-66
2022/02/24 04:08:57;;;;;;;5.10;0.82;;;25.90;99.90;;;;;;5033794;28;20021;-66
2022/02/24 04:11:24;;;;;;;4.47;0.73;;;25.90;99.90;;;;;;5034111;28;20383;-66
2022/02/24 04:13:51;;;;;;;3.72;0.90;;;25.90;99.90;;;;;;5029982;28;20061;-66
2022/02/24 04:16:18;;;;;;;5.78;0.52;;;25.90;99.90;;;;;;5031470;28;20030;-66
2022/02/24 04:18:46;;;;;;;4.20;0.73;;;25.90;99.90;;;;;;5032177;28;20025;-65
2022/02/24 04:21:13;;;;;;;5.28;0.70;;;25.90;99.90;;;;;;5032474;28;20025;-65
2022/02/24 04:23:42;;;;;;;5.93;0.75;;;25.80;99.90;;;;;;5014761;28;20026;-65
2022/02/24 04:26:09;;;;;;;4.18;0.82;;;25.70;99.90;;;;;;5032298;28;20033;-65
2022/02/24 04:28:36;;;;;;;4.85;1.05;;;25.60;99.90;;;;;;5032845;28;21019;-66
2022/02/24 04:31:03;;;;;;;6.35;0.77;;;25.60;99.90;;;;;;5032178;28;20409;-65
2022/02/24 04:33:30;;;;;;;5.20;0.60;;;25.60;99.90;;;;;;5022092;28;20034;-65
2022/02/24 04:35:58;;;;;;;4.40;0.30;;;25.50;99.90;;;;;;5024795;28;20035;-66
2022/02/24 04:38:25;;;;;;;6.63;1.88;;;25.50;99.90;;;;;;5030809;28;20512;-66
2022/02/24 04:40:52;;;;;;;5.25;0.80;;;25.40;99.90;;;;;;5032363;28;20094;-66
2022/02/24 04:43:20;;;;;;;4.93;0.98;;;25.40;99.90;;;;;;5015966;28;20032;-66
2022/02/24 04:45:47;;;;;;;7.35;1.23;;;25.40;99.90;;;;;;5033684;28;20033;-66
2022/02/24 04:48:14;;;;;;;8.18;1.23;;;25.40;99.90;;;;;;5034817;28;20036;-66
2022/02/24 04:50:41;;;;;;;8.85;1.45;;;25.40;99.90;;;;;;5033697;28;20052;-66
2022/02/24 04:53:09;;;;;;;14.27;1.67;;;25.40;99.90;;;;;;5033524;28;20034;-66
2022/02/24 04:55:36;;;;;;;7.25;1.98;;;25.40;99.90;;;;;;5015965;28;20044;-66
2022/02/24 04:58:03;;;;;;;9.32;1.63;;;25.30;99.90;;;;;;5034126;28;20135;-66
2022/02/24 05:00:31;;;;;;;8.80;1.25;;;25.30;99.90;;;;;;5033091;28;20025;-66
2022/02/24 05:02:58;;;;;;;8.10;1.02;;;25.20;99.90;;;;;;5033879;28;20021;-66
2022/02/24 05:05:25;;;;;;;9.70;1.50;;;25.30;99.90;;;;;;5033224;28;20033;-66
2022/02/24 05:07:53;;;;;;;10.27;1.33;;;25.30;99.90;;;;;;5034486;28;20409;-66
2022/02/24 05:10:20;;;;;;;8.40;1.42;;;25.40;99.90;;;;;;5028533;28;20105;-66
2022/02/24 05:12:48;;;;;;;11.60;1.67;;;25.40;99.90;;;;;;5031527;28;20017;-66
2022/02/24 05:15:15;;;;;;;14.82;1.75;;;25.50;99.90;;;;;;5028827;28;20106;-66
2022/02/24 05:17:42;;;;;;;7.47;1.33;;;25.40;99.90;;;;;;5014464;28;20025;-66
2022/02/24 05:20:14;;;;;;;12.93;1.60;;;25.50;99.90;;;;;;5026295;28;20172;-66
2022/02/24 05:22:43;;;;;;;8.77;1.58;;;25.40;99.90;;;;;;5013032;28;20088;-65
2022/02/24 05:25:15;;;;;;;8.57;1.80;;;25.40;99.90;;;;;;5029217;28;20025;-65
2022/02/24 05:27:44;;;;;;;10.55;2.05;;;25.30;99.90;;;;;;5032629;28;20022;-65
2022/02/24 05:30:13;;;;;;;7.32;1.35;;;25.20;99.90;;;;;;5031091;28;20105;-66
2022/02/24 05:32:42;;;;;;;9.75;1.85;;;25.40;99.90;;;;;;5032405;28;20071;-66
2022/02/24 05:35:09;;;;;;;13.15;2.00;;;25.40;99.90;;;;;;5033984;28;20025;-66
2022/02/24 05:37:37;;;;;;;9.63;1.92;;;25.30;99.90;;;;;;5035175;28;20385;-66
2022/02/24 05:40:05;;;;;;;11.80;2.55;;;25.20;99.90;;;;;;5027042;28;20413;-66
2022/02/24 05:42:32;;;;;;;6.10;0.98;;;25.20;99.90;;;;;;5035614;28;20079;-66
2022/02/24 05:45:00;;;;;;;7.82;1.13;;;24.90;99.90;;;;;;5034053;28;20503;-66
2022/02/24 05:47:27;;;;;;;9.48;1.90;;;24.70;99.90;;;;;;5035378;28;20030;-66
2022/02/24 05:49:54;;;;;;;7.53;1.10;;;24.50;99.90;;;;;;5028039;28;20053;-66
2022/02/24 05:52:21;;;;;;;8.80;1.67;;;24.30;99.90;;;;;;5035585;28;20025;-66
2022/02/24 05:54:48;;;;;;;7.65;0.98;;;24.20;99.90;;;;;;5032888;28;20021;-65
2022/02/24 05:57:16;;;;;;;5.55;1.08;;;24.20;99.90;;;;;;5032698;28;20022;-66
2022/02/24 05:59:43;;;;;;;7.00;1.00;;;24.20;99.90;;;;;;5033142;28;20033;-66
2022/02/24 06:02:10;;;;;;;4.45;0.75;;;24.20;99.90;;;;;;4999066;28;20036;-66
2022/02/24 06:04:37;;;;;;;6.68;1.33;;;24.10;99.90;;;;;;5032852;28;20030;-66
2022/02/24 06:07:05;;;;;;;7.55;1.15;;;24.10;99.90;;;;;;5029755;28;20082;-66
2022/02/24 06:09:32;;;;;;;8.35;1.15;;;24.10;99.90;;;;;;5015427;28;20108;-66
2022/02/24 06:11:59;;;;;;;4.95;0.63;;;24.00;99.90;;;;;;5035448;28;20029;-66
2022/02/24 06:14:27;;;;;;;8.65;0.70;;;24.00;99.90;;;;;;5030539;28;20025;-65
2022/02/24 06:16:54;;;;;;;7.57;0.98;;;24.00;99.90;;;;;;5025477;28;20087;-66
2022/02/24 06:19:21;;;;;;;5.35;0.88;;;23.90;99.90;;;;;;5032635;28;20029;-66
2022/02/24 06:21:50;;;;;;;4.72;1.00;;;23.90;99.90;;;;;;5031899;28;20032;-66
2022/02/24 06:24:18;;;;;;;5.40;0.77;;;23.90;99.90;;;;;;5033352;28;20088;-65
2022/02/24 06:26:45;;;;;;;3.42;0.63;;;23.90;99.90;;;;;;5034242;28;20475;-66
2022/02/24 06:29:12;;;;;;;5.03;0.82;;;24.00;99.90;;;;;;5033023;28;20037;-66
2022/02/24 06:31:40;;;;;;;5.15;1.27;;;23.90;99.90;;;;;;5034613;28;20032;-65
2022/02/24 06:34:08;;;;;;;5.68;0.57;;;23.90;99.90;;;;;;5014292;28;20029;-66
2022/02/24 06:36:35;;;;;;;6.22;1.10;;;23.90;99.90;;;;;;5033338;28;20026;-66
2022/02/24 06:39:03;;;;;;;7.43;0.88;;;23.80;99.90;;;;;;5031684;28;20053;-66
2022/02/24 06:41:30;;;;;;;8.13;1.58;;;23.60;99.90;;;;;;5026639;28;20467;-66
2022/02/24 06:43:57;;;;;;;5.13;0.75;;;23.60;99.90;;;;;;5031039;28;20514;-66
2022/02/24 06:46:24;;;;;;;5.95;0.63;;;23.60;99.90;;;;;;5032945;28;20107;-67
2022/02/24 06:48:52;;;;;;;7.38;1.20;;;23.60;99.90;;;;;;5031797;28;20030;-66
2022/02/24 06:51:19;;;;;;;4.00;0.90;;;23.60;99.90;;;;;;5032027;28;20026;-66
2022/02/24 06:53:46;;;;;;;9.20;1.50;;;23.60;99.90;;;;;;5029311;28;20101;-66
2022/02/24 06:56:14;;;;;;;9.55;1.13;;;23.60;99.90;;;;;;5028801;28;20022;-66
2022/02/24 06:58:41;;;;;;;10.57;1.33;;;23.60;99.90;;;;;;5026118;28;20036;-66
2022/02/24 07:01:08;;;;;;;8.20;1.35;;;23.60;99.90;;;;;;5013283;28;20025;-66
2022/02/24 07:03:35;;;;;;;7.07;0.98;;;23.60;99.90;;;;;;5029606;28;20041;-67
2022/02/24 07:06:03;;;;;;;13.75;1.73;;;23.70;99.90;;;;;;5030318;28;20041;-66
2022/02/24 07:08:30;;;;;;;13.27;1.90;;;23.70;99.90;;;;;;5032929;28;20022;-66
2022/02/24 07:10:57;;;;;;;9.57;1.58;;;23.80;99.90;;;;;;5031995;28;20477;-66
2022/02/24 07:13:25;;;;;;;12.07;2.55;;;23.70;99.90;;;;;;5032712;28;20095;-66
2022/02/24 07:15:52;;;;;;;14.77;2.13;;;23.70;99.90;;;;;;5030071;28;20119;-66
2022/02/24 07:18:19;;;;;;;18.88;3.00;;;23.70;99.90;;;;;;5019023;28;20030;-66
2022/02/24 07:20:46;;;;;;;11.90;1.63;;;23.80;99.90;;;;;;5015635;28;20030;-66
2022/02/24 07:23:14;;;;;;;13.80;2.55;;;23.70;99.90;;;;;;5031142;28;20444;-66
2022/02/24 07:25:41;;;;;;;11.25;1.90;;;23.70;99.90;;;;;;5024208;28;20038;-66
2022/02/24 07:28:09;;;;;;;11.02;2.17;;;23.70;99.90;;;;;;5030404;28;20036;-66
2022/02/24 07:30:37;;;;;;;14.43;2.30;;;23.80;99.90;;;;;;5026906;28;20022;-66
2022/02/24 07:33:04;;;;;;;12.35;2.72;;;23.80;99.90;;;;;;5029914;28;20496;-66
2022/02/24 07:35:32;;;;;;;14.32;2.22;;;23.80;99.90;;;;;;5028523;28;20053;-66
2022/02/24 07:37:59;;;;;;;14.18;4.68;;;23.80;99.90;;;;;;5007095;28;20029;-66
2022/02/24 07:40:27;;;;;;;20.80;10.77;;;23.80;99.90;;;;;;5036190;23;20037;-66
2022/02/24 07:42:54;;;;;;;45.38;33.38;;;23.80;99.90;;;;;;5043849;28;20485;-66
2022/02/24 07:45:22;;;;;;;35.22;21.38;;;23.80;99.90;;;;;;5046889;28;20025;-66
2022/02/24 07:47:49;;;;;;;17.80;3.70;;;23.80;99.90;;;;;;5051900;28;20432;-66
2022/02/24 07:50:17;;;;;;;13.75;2.63;;;23.80;99.90;;;;;;5058137;28;20450;-67
2022/02/24 07:52:45;;;;;;;8.77;1.60;;;23.80;99.90;;;;;;5057674;28;20071;-66
2022/02/24 07:55:14;;;;;;;11.63;2.30;;;23.80;99.90;;;;;;5050955;28;20068;-65
2022/02/24 07:57:42;;;;;;;10.80;2.10;;;23.80;99.90;;;;;;5045540;28;20039;-66
2022/02/24 08:00:15;;;;;;;10.38;2.50;;;23.80;99.90;;;;;;5048419;28;20025;-66
2022/02/24 08:02:43;;;;;;;18.20;3.83;;;23.80;99.90;;;;;;5042480;28;20067;-66
2022/02/24 08:05:11;;;;;;;9.60;2.13;;;23.90;99.90;;;;;;5033945;28;20132;-66
2022/02/24 08:07:39;;;;;;;13.40;1.92;;;23.90;99.90;;;;;;5047114;28;20370;-66
2022/02/24 08:10:07;;;;;;;7.35;1.58;;;23.90;99.90;;;;;;5050246;28;20037;-66
2022/02/24 08:12:43;;;;;;;17.45;3.28;;;23.80;99.90;;;;;;5034727;28;20041;-66
2022/02/24 08:15:14;;;;;;;9.48;1.42;;;23.80;99.90;;;;;;5051276;28;20469;-66
2022/02/24 08:17:41;;;;;;;15.40;2.40;;;23.70;99.90;;;;;;5051601;28;20105;-66
2022/02/24 08:20:10;;;;;;;11.90;2.47;;;23.70;99.90;;;;;;5046914;28;20035;-66
2022/02/24 08:22:42;;;;;;;17.55;2.50;;;23.60;99.90;;;;;;5048889;28;20033;-67
2022/02/24 08:25:12;;;;;;;14.48;1.92;;;23.50;99.90;;;;;;5049826;28;20090;-67
2022/02/24 08:27:40;;;;;;;9.65;1.52;;;23.30;99.90;;;;;;5050043;28;20021;-67
2022/02/24 08:30:10;;;;;;;16.15;2.80;;;23.30;99.90;;;;;;5037407;28;20087;-66
2022/02/24 08:32:39;;;;;;;11.27;2.15;;;23.10;99.90;;;;;;5052176;28;20025;-66
2022/02/24 08:35:08;;;;;;;8.77;1.30;;;23.10;99.90;;;;;;5051932;28;20066;-67
2022/02/24 08:37:36;;;;;;;17.00;1.92;;;23.10;99.90;;;;;;5041023;28;20163;-67
2022/02/24 08:40:08;;;;;;;7.28;1.63;;;23.00;99.90;;;;;;5037365;28;20497;-67
2022/02/24 08:42:35;;;;;;;12.07;1.67;;;23.10;99.90;;;;;;5047426;28;20028;-66
2022/02/24 08:45:04;;;;;;;8.57;1.83;;;23.00;99.90;;;;;;5036156;28;20171;-66
2022/02/24 08:47:31;;;;;;;13.88;1.98;;;23.00;99.90;;;;;;5037520;28;20025;-67
2022/02/24 08:49:58;;;;;;;12.57;1.88;;;23.10;99.90;;;;;;5040454;28;20367;-67
2022/02/24 08:52:25;;;;;;;6.93;1.15;;;23.10;99.90;;;;;;5051110;28;20033;-67
2022/02/24 08:54:53;;;;;;;11.02;1.30;;;23.00;99.90;;;;;;5051757;28;20021;-67
2022/02/24 08:57:20;;;;;;;9.55;1.63;;;23.00;99.90;;;;;;5051478;28;20033;-67
2022/02/24 08:59:48;;;;;;;7.43;1.17;;;23.00;99.90;;;;;;5051599;28;20024;-67
2022/02/24 09:02:15;;;;;;;10.20;2.00;;;23.00;99.90;;;;;;5051847;28;20017;-67
2022/02/24 09:04:43;;;;;;;9.77;2.03;;;23.00;99.90;;;;;;5051492;28;20051;-67
2022/02/24 09:07:10;;;;;;;13.00;1.50;;;23.00;99.90;;;;;;5051938;28;20513;-67
2022/02/24 09:09:37;;;;;;;12.13;1.92;;;23.10;99.90;;;;;;5052069;28;20033;-67
2022/02/24 09:12:05;;;;;;;7.97;1.35;;;23.10;99.90;;;;;;5054361;28;20053;-67
2022/02/24 09:14:34;;;;;;;10.80;2.22;;;23.10;99.90;;;;;;5055735;28;20467;-67
2022/02/24 09:17:06;;;;;;;11.43;2.15;;;23.00;99.90;;;;;;5042700;28;20026;-67
2022/02/24 09:19:33;;;;;;;8.18;1.10;;;23.10;99.90;;;;;;5054609;28;20429;-67
2022/02/24 09:22:01;;;;;;;9.35;2.17;;;23.00;99.90;;;;;;5053197;28;20045;-67
2022/02/24 09:24:28;;;;;;;14.65;1.90;;;23.00;99.90;;;;;;5042794;28;20037;-67
2022/02/24 09:26:55;;;;;;;9.80;1.98;;;23.00;99.90;;;;;;5035717;28;20104;-67
2022/02/24 09:29:23;;;;;;;9.38;1.33;;;23.00;99.90;;;;;;5044035;28;20033;-67
2022/02/24 09:31:50;;;;;;;10.32;2.03;;;23.00;99.90;;;;;;5050003;28;20096;-67
2022/02/24 09:34:17;;;;;;;9.85;1.33;;;23.00;99.90;;;;;;5035946;28;20032;-67
2022/02/24 09:36:45;;;;;;;7.70;0.80;;;22.90;99.90;;;;;;5047045;28;20031;-67
2022/02/24 09:39:13;;;;;;;6.70;0.90;;;22.80;99.90;;;;;;5053788;28;20528;-66
2022/02/24 09:41:41;;;;;;;10.65;1.15;;;22.70;99.90;;;;;;5050724;28;20029;-67
2022/02/24 09:44:08;;;;;;;10.13;1.17;;;22.70;99.90;;;;;;5051312;28;20073;-67
2022/02/24 09:46:36;;;;;;;10.27;1.00;;;22.70;99.90;;;;;;5035387;28;20078;-67
2022/02/24 09:49:04;;;;;;;9.18;1.50;;;22.70;99.90;;;;;;5052171;28;20021;-67
2022/02/24 09:51:32;;;;;;;7.28;1.13;;;22.70;99.90;;;;;;5053787;28;20032;-66
2022/02/24 09:54:01;;;;;;;4.22;0.90;;;22.70;99.90;;;;;;5055273;28;20474;-66
2022/02/24 09:56:31;;;;;;;12.60;1.40;;;22.70;99.90;;;;;;5055429;28;20497;-66
2022/02/24 09:59:00;;;;;;;7.82;1.10;;;22.80;99.90;;;;;;5042723;28;20037;-66
2022/02/24 10:01:28;;;;;;;8.48;0.95;;;22.70;99.90;;;;;;5054939;28;20031;-66
2022/02/24 10:03:59;;;;;;;8.10;1.02;;;22.70;99.90;;;;;;5055204;28;20487;-66
2022/02/24 10:06:38;;;;;;;10.55;1.20;;;22.70;99.90;;;;;;5054766;28;20040;-66
2022/02/24 10:09:08;;;;;;;10.88;1.75;;;22.70;99.90;;;;;;5048780;28;20115;-66
2022/02/24 10:11:39;;;;;;;8.13;1.45;;;22.60;99.90;;;;;;5045382;28;20508;-66
2022/02/24 10:14:07;;;;;;;7.72;1.55;;;22.70;99.90;;;;;;5034946;28;20112;-66
2022/02/24 10:16:57;;;;;;;4.00;0.77;;;22.60;99.90;;;;;;5036087;28;20022;-66
2022/02/24 10:19:28;;;;;;;9.95;1.20;;;22.60;99.90;;;;;;5021853;28;20061;-66
2022/02/24 10:22:18;;;;;;;9.65;1.08;;;22.60;99.90;;;;;;5046564;28;20021;-66
2022/02/24 10:24:54;;;;;;;15.93;1.77;;;22.60;99.90;;;;;;5053943;28;20029;-66
2022/02/24 10:27:30;;;;;;;14.45;2.78;;;22.60;99.90;;;;;;5053697;28;20029;-66
2022/02/24 10:30:01;;;;;;;7.38;1.25;;;22.60;99.90;;;;;;5044485;28;20044;-66
2022/02/24 10:32:40;;;;;;;11.85;1.33;;;22.60;99.90;;;;;;5041942;28;20028;-66
2022/02/24 10:35:28;;;;;;;8.68;1.48;;;22.60;99.90;;;;;;5036286;28;20093;-66
2022/02/24 10:38:12;;;;;;;11.77;1.63;;;22.60;99.90;;;;;;5050246;28;20029;-66
2022/02/24 10:40:42;;;;;;;8.95;1.45;;;22.60;99.90;;;;;;5047500;28;20049;-67
2022/02/24 10:43:18;;;;;;;10.18;2.22;;;22.60;99.90;;;;;;5052673;28;20025;-64
2022/02/24 10:45:57;;;;;;;11.15;1.92;;;22.60;99.90;;;;;;5052391;28;20108;-67
2022/02/24 10:48:25;;;;;;;7.88;1.38;;;22.50;99.90;;;;;;5050228;28;20524;-67
2022/02/24 10:51:05;;;;;;;9.95;1.95;;;22.50;99.90;;;;;;5044225;28;20037;-68
2022/02/24 10:53:35;;;;;;;11.20;1.98;;;22.50;99.90;;;;;;5066886;28;20585;-68
2022/02/24 10:56:15;;;;;;;8.50;1.13;;;22.40;99.90;;;;;;5050960;28;20037;-67
2022/02/24 10:58:46;;;;;;;10.05;1.50;;;22.40;99.90;;;;;;5051164;28;20032;-67
2022/02/24 11:01:25;;;;;;;7.60;0.98;;;22.40;99.90;;;;;;5051731;28;20037;-67
2022/02/24 11:03:58;;;;;;;11.52;1.25;;;22.40;99.90;;;;;;5050419;28;20029;-67
2022/02/24 11:06:28;;;;;;;13.13;1.75;;;22.40;99.90;;;;;;5052476;28;20036;-67
2022/02/24 11:08:57;;;;;;;10.27;2.03;;;22.40;99.90;;;;;;5047931;28;20033;-67
2022/02/24 11:11:27;;;;;;;10.88;2.28;;;22.40;99.90;;;;;;5057569;28;20043;-67
2022/02/24 11:13:57;;;;;;;11.40;1.73;;;22.30;99.90;;;;;;5049143;28;20036;-67
2022/02/24 11:16:26;;;;;;;13.10;1.92;;;22.40;99.90;;;;;;5045876;28;20025;-67
2022/02/24 11:18:57;;;;;;;6.38;1.23;;;22.20;99.90;;;;;;5051185;28;20124;-66
2022/02/24 11:21:25;;;;;;;5.80;1.70;;;22.10;99.90;;;;;;5051640;28;20029;-66
2022/02/24 11:23:54;;;;;;;9.27;1.40;;;22.00;99.90;;;;;;5052070;28;20017;-67
2022/02/24 11:26:24;;;;;;;9.13;1.67;;;22.00;99.90;;;;;;5050046;28;20082;-67
2022/02/24 11:29:04;;;;;;;14.60;2.72;;;22.00;99.90;;;;;;5050725;28;20051;-67
2022/02/24 11:31:51;;;;;;;11.23;1.98;;;22.00;99.90;;;;;;5049336;28;20072;-67
2022/02/24 11:34:38;;;;;;;13.50;2.17;;;22.10;99.90;;;;;;5049833;28;20112;-67
2022/02/24 11:37:41;;;;;;;8.90;1.45;;;22.00;99.90;;;;;;5062665;28;20075;-67
2022/02/24 11:40:27;;;;;;;17.27;1.60;;;22.00;99.90;;;;;;5042403;28;20049;-67
2022/02/24 11:43:05;;;;;;;12.40;2.10;;;21.90;99.90;;;;;;5050414;28;20409;-67
2022/02/24 11:45:40;;;;;;;11.73;2.05;;;22.00;99.90;;;;;;5045895;28;20397;-67
2022/02/24 11:48:12;;;;;;;11.50;2.38;;;22.00;99.90;;;;;;5053212;28;20385;-67
2022/02/24 11:50:42;;;;;;;16.80;1.98;;;22.00;99.90;;;;;;5052140;28;20025;-67
2022/02/24 11:53:26;;;;;;;19.83;2.55;;;21.90;99.90;;;;;;5051620;28;20409;-67
2022/02/24 11:56:01;;;;;;;13.30;2.50;;;21.90;99.90;;;;;;5051664;28;20032;-67
2022/02/24 11:58:41;;;;;;;17.10;2.70;;;22.00;99.90;;;;;;5052985;28;20548;-68
2022/02/24 12:01:24;;;;;;;13.40;2.42;;;21.90;99.90;;;;;;5051620;28;20032;-67
2022/02/24 12:03:52;;;;;;;16.92;2.70;;;21.90;99.90;;;;;;5052179;28;20025;-67
2022/02/24 12:06:41;;;;;;;18.67;2.90;;;22.00;99.90;;;;;;5051731;28;20040;-67
2022/02/24 12:09:09;;;;;;;19.08;3.45;;;21.90;99.90;;;;;;5040661;28;20053;-67
2022/02/24 12:11:54;;;;;;;14.60;3.00;;;22.00;99.90;;;;;;5051637;28;20048;-67
2022/02/24 12:14:25;;;;;;;12.57;2.47;;;22.00;99.90;;;;;;5044862;28;20056;-68
2022/02/24 12:17:04;;;;;;;19.85;3.42;;;21.90;99.90;;;;;;5051376;28;20455;-68
2022/02/24 12:19:54;;;;;;;15.18;2.58;;;22.00;99.90;;;;;;5051581;28;20017;-67
2022/02/24 12:22:23;;;;;;;19.08;3.38;;;22.00;99.90;;;;;;5048223;28;20484;-67
2022/02/24 12:25:09;;;;;;;16.45;3.10;;;22.00;99.90;;;;;;5047670;28;20044;-67
2022/02/24 12:27:40;;;;;;;22.52;3.15;;;22.00;99.90;;;;;;5051300;28;20032;-67
2022/02/24 12:30:10;;;;;;;21.10;3.67;;;22.00;99.90;;;;;;5047575;28;20469;-67
2022/02/24 12:33:09;;;;;;;18.08;3.33;;;22.00;99.90;;;;;;5064995;28;20542;-68
2022/02/24 12:35:50;;;;;;;21.55;3.50;;;22.10;99.90;;;;;;5047051;28;20029;-67
2022/02/24 12:38:22;;;;;;;19.65;2.97;;;22.00;99.90;;;;;;5048047;28;20409;-67
2022/02/24 12:40:55;;;;;;;20.70;4.15;;;22.10;99.90;;;;;;5048649;28;20509;-67
2022/02/24 12:43:25;;;;;;;27.38;4.63;;;22.10;99.90;;;;;;5051401;28;20037;-67
2022/02/24 12:45:53;;;;;;;21.23;3.53;;;22.10;99.90;;;;;;5048565;28;20033;-67
2022/02/24 12:48:21;;;;;;;26.50;3.97;;;22.00;99.90;;;;;;5049558;28;20021;-67
2022/02/24 12:50:52;;;;;;;23.13;3.55;;;22.10;99.90;;;;;;5049010;28;20017;-68